Agat, GU

2:48 PM ChST on August 04, 2015 (GMT +1000)
Ordot Dump | | Change Station
CLOSE
Current Station
Personal Weather Station
Location: Chalan Pago Ordot,
Elevation: 282 ft
Nearby Weather Stations
Active Advisory: High Surf Advisory

Elev 282 ft 13.44 °N, 144.75 °E | Updated 0 second ago

Mostly Cloudy
Mostly Cloudy
84.0 °F
Feels Like 97 °F
N
2.0
Wind Variable Wind from WSW
Gusts 7.0 mph

Today
High -- | Low -- °F
--% Chance of Precip.
Yesterday
High -- | Low -- °F
Precip. -- in
6:06 AM 6:48 PM
Waning Gibbous, 81% visible
Pressure 29.64 in
Visibility 10.0 miles
Clouds Mostly Cloudy 2000 ft
Heat Index 97 °F
Dew Point 80 °F
Humidity 87%
Rainfall 0.38 in
Snow Depth Not available.
UV 7 out of 12
Pollen Not available.
Air Quality Not available.
Flu Activity Not available.
SPECI PGUM 040446Z 17006G17KT 10SM BKN020 28/23 A2964 RMK AO2 CB DSNT NE $

More Conditions Fewer Conditions

Pressure 29.64 in
Visibility 10.0 miles
Clouds Mostly Cloudy 2000 ft
Heat Index 97 °F
Dew Point 80 °F
Humidity 87%
Rainfall 0.38 in
Snow Depth Not available.
UV 7 out of 12
Pollen Not available.
Air Quality Not available.
Flu Activity Not available.
SPECI PGUM 040446Z 17006G17KT 10SM BKN020 28/23 A2964 RMK AO2 CB DSNT NE $

More Conditions Fewer Conditions

10-Day Weather Forecast

×

Almanac

Astronomy

Aug. 04, 2015 Rise Set
Actual Time
Civil Twilight
Nautical Twilight
Astronomical Twilight
Moon
Length of Visible Light
Length of Day
Tomorrow will be .
, % of the Moon is Illuminated

Today's Extremes

State Highs State Lows

Community

WunderPhotos

Upload Photos

1,843,865 photos uploaded!

WunderBlogs® & News

Nearby

Air Quality

  Air Quality AQ Index Pollutant
Not available.

Snow Depth

Station Depth Elevation

Earthquake Activity

City Distance Mag. Time & Date
Minimum magnitude displayed is 2.5.

Coastal Water Temperatures

Place Temperature

Stations

Nearby Weather Stations

Station Location Temp. Windchill Dew Point Humidity Wind Precip. Elev Updated Type
                   
High Surf Advisory
Statement as of 5:07 AM GMT on August 04, 2015

... High surf advisory remains in effect until 6 PM chst Friday...

* expect hazardous surf of 7 to 10 feet along north and south
facing reefs through most of this week.

* Expect hazardous surf of 8 to 12 feet along west facing reefs
through most of this week.

Precautionary/preparedness actions...

Avoid venturing near exposed reefs and beaches... especially those
facing South... West and north... as rip currents will be life
threatening.


Simpson